sensor_id;sensor_type;location;lat;lon;timestamp;P1;durP1;ratioP1;P2;durP2;ratioP2
14892;SDS011;7538;53.626;9.906;2023-03-19T00:01:27;17.00;;;14.75;;
14892;SDS011;7538;53.626;9.906;2023-03-19T00:03:54;17.30;;;14.40;;
14892;SDS011;7538;53.626;9.906;2023-03-19T00:06:21;20.52;;;15.20;;
14892;SDS011;7538;53.626;9.906;2023-03-19T00:08:49;19.77;;;14.90;;
14892;SDS011;7538;53.626;9.906;2023-03-19T00:11:17;18.20;;;15.10;;
14892;SDS011;7538;53.626;9.906;2023-03-19T00:13:44;16.30;;;14.45;;
14892;SDS011;7538;53.626;9.906;2023-03-19T00:16:11;17.52;;;13.70;;
14892;SDS011;7538;53.626;9.906;2023-03-19T00:18:38;18.08;;;15.27;;
14892;SDS011;7538;53.626;9.906;2023-03-19T00:21:05;15.27;;;13.68;;
14892;SDS011;7538;53.626;9.906;2023-03-19T00:23:32;16.65;;;13.65;;
14892;SDS011;7538;53.626;9.906;2023-03-19T00:26:00;15.15;;;13.27;;
14892;SDS011;7538;53.626;9.906;2023-03-19T00:28:29;15.98;;;13.68;;
14892;SDS011;7538;53.626;9.906;2023-03-19T00:30:56;14.57;;;12.77;;
14892;SDS011;7538;53.626;9.906;2023-03-19T00:33:22;15.82;;;14.00;;
14892;SDS011;7538;53.626;9.906;2023-03-19T00:35:50;15.93;;;12.95;;
14892;SDS011;7538;53.626;9.906;2023-03-19T00:38:17;15.33;;;13.67;;
14892;SDS011;7538;53.626;9.906;2023-03-19T00:40:44;16.70;;;13.93;;
14892;SDS011;7538;53.626;9.906;2023-03-19T00:43:12;17.23;;;14.30;;
14892;SDS011;7538;53.626;9.906;2023-03-19T00:45:40;17.33;;;15.13;;
14892;SDS011;7538;53.626;9.906;2023-03-19T00:48:07;15.40;;;13.77;;
14892;SDS011;7538;53.626;9.906;2023-03-19T00:50:34;16.30;;;14.57;;
14892;SDS011;7538;53.626;9.906;2023-03-19T00:53:00;15.95;;;14.35;;
14892;SDS011;7538;53.626;9.906;2023-03-19T00:55:27;18.40;;;14.10;;
14892;SDS011;7538;53.626;9.906;2023-03-19T00:57:54;17.95;;;15.07;;
14892;SDS011;7538;53.626;9.906;2023-03-19T01:00:21;17.65;;;14.75;;
14892;SDS011;7538;53.626;9.906;2023-03-19T01:02:49;17.90;;;14.40;;
14892;SDS011;7538;53.626;9.906;2023-03-19T01:05:16;16.58;;;14.50;;
14892;SDS011;7538;53.626;9.906;2023-03-19T01:07:43;17.30;;;15.17;;
14892;SDS011;7538;53.626;9.906;2023-03-19T01:10:10;16.88;;;14.30;;
14892;SDS011;7538;53.626;9.906;2023-03-19T01:12:37;17.13;;;14.68;;
14892;SDS011;7538;53.626;9.906;2023-03-19T01:15:04;17.10;;;14.07;;
14892;SDS011;7538;53.626;9.906;2023-03-19T01:17:32;14.90;;;13.32;;
14892;SDS011;7538;53.626;9.906;2023-03-19T01:20:01;17.50;;;14.43;;
14892;SDS011;7538;53.626;9.906;2023-03-19T01:22:28;16.67;;;14.00;;
14892;SDS011;7538;53.626;9.906;2023-03-19T01:24:55;16.53;;;14.77;;
14892;SDS011;7538;53.626;9.906;2023-03-19T01:27:21;14.77;;;13.27;;
14892;SDS011;7538;53.626;9.906;2023-03-19T01:29:49;15.57;;;12.88;;
14892;SDS011;7538;53.626;9.906;2023-03-19T01:32:16;16.20;;;14.30;;
14892;SDS011;7538;53.626;9.906;2023-03-19T01:34:42;16.27;;;12.93;;
14892;SDS011;7538;53.626;9.906;2023-03-19T01:37:11;16.63;;;14.55;;
14892;SDS011;7538;53.626;9.906;2023-03-19T01:39:38;14.97;;;13.37;;
14892;SDS011;7538;53.626;9.906;2023-03-19T01:42:05;15.68;;;13.60;;
14892;SDS011;7538;53.626;9.906;2023-03-19T01:44:33;16.75;;;13.23;;
14892;SDS011;7538;53.626;9.906;2023-03-19T01:47:02;15.93;;;13.83;;
14892;SDS011;7538;53.626;9.906;2023-03-19T01:49:31;15.40;;;13.80;;
14892;SDS011;7538;53.626;9.906;2023-03-19T01:51:58;15.05;;;13.38;;
14892;SDS011;7538;53.626;9.906;2023-03-19T01:54:29;15.43;;;13.17;;
14892;SDS011;7538;53.626;9.906;2023-03-19T01:56:58;15.93;;;13.47;;
14892;SDS011;7538;53.626;9.906;2023-03-19T01:59:29;14.80;;;12.50;;
14892;SDS011;7538;53.626;9.906;2023-03-19T02:02:01;15.33;;;13.20;;
14892;SDS011;7538;53.626;9.906;2023-03-19T02:04:37;15.87;;;13.93;;
14892;SDS011;7538;53.626;9.906;2023-03-19T02:07:06;16.03;;;13.67;;
14892;SDS011;7538;53.626;9.906;2023-03-19T02:09:35;16.08;;;13.25;;
14892;SDS011;7538;53.626;9.906;2023-03-19T02:12:04;15.10;;;13.50;;
14892;SDS011;7538;53.626;9.906;2023-03-19T02:14:32;15.57;;;13.47;;
14892;SDS011;7538;53.626;9.906;2023-03-19T02:16:59;14.32;;;11.70;;
14892;SDS011;7538;53.626;9.906;2023-03-19T02:19:27;14.33;;;12.83;;
14892;SDS011;7538;53.626;9.906;2023-03-19T02:22:00;17.17;;;12.87;;
14892;SDS011;7538;53.626;9.906;2023-03-19T02:24:30;15.33;;;13.10;;
14892;SDS011;7538;53.626;9.906;2023-03-19T02:27:01;14.53;;;12.03;;
14892;SDS011;7538;53.626;9.906;2023-03-19T02:29:28;13.47;;;12.07;;
14892;SDS011;7538;53.626;9.906;2023-03-19T02:31:55;14.17;;;12.40;;
14892;SDS011;7538;53.626;9.906;2023-03-19T02:34:37;13.90;;;11.73;;
14892;SDS011;7538;53.626;9.906;2023-03-19T02:37:10;14.57;;;12.33;;
14892;SDS011;7538;53.626;9.906;2023-03-19T02:39:44;16.20;;;12.77;;
14892;SDS011;7538;53.626;9.906;2023-03-19T02:42:16;15.10;;;13.47;;
14892;SDS011;7538;53.626;9.906;2023-03-19T02:44:44;15.00;;;12.43;;
14892;SDS011;7538;53.626;9.906;2023-03-19T02:47:11;14.27;;;11.93;;
14892;SDS011;7538;53.626;9.906;2023-03-19T02:49:38;15.47;;;13.17;;
14892;SDS011;7538;53.626;9.906;2023-03-19T02:52:05;14.47;;;12.50;;
14892;SDS011;7538;53.626;9.906;2023-03-19T02:54:33;15.63;;;12.40;;
14892;SDS011;7538;53.626;9.906;2023-03-19T02:56:59;14.57;;;12.30;;
14892;SDS011;7538;53.626;9.906;2023-03-19T02:59:27;14.53;;;12.30;;
14892;SDS011;7538;53.626;9.906;2023-03-19T03:01:55;16.27;;;13.30;;
14892;SDS011;7538;53.626;9.906;2023-03-19T03:04:21;14.40;;;12.50;;
14892;SDS011;7538;53.626;9.906;2023-03-19T03:06:48;14.30;;;11.87;;
14892;SDS011;7538;53.626;9.906;2023-03-19T03:09:15;14.50;;;11.70;;
14892;SDS011;7538;53.626;9.906;2023-03-19T03:11:42;14.83;;;11.90;;
14892;SDS011;7538;53.626;9.906;2023-03-19T03:14:09;14.67;;;11.83;;
14892;SDS011;7538;53.626;9.906;2023-03-19T03:16:38;13.27;;;11.13;;
14892;SDS011;7538;53.626;9.906;2023-03-19T03:19:04;14.40;;;11.67;;
14892;SDS011;7538;53.626;9.906;2023-03-19T03:21:31;14.53;;;11.80;;
14892;SDS011;7538;53.626;9.906;2023-03-19T03:23:59;13.17;;;11.77;;
14892;SDS011;7538;53.626;9.906;2023-03-19T03:26:26;14.87;;;11.67;;
14892;SDS011;7538;53.626;9.906;2023-03-19T03:28:53;12.60;;;10.37;;
14892;SDS011;7538;53.626;9.906;2023-03-19T03:31:19;12.80;;;11.02;;
14892;SDS011;7538;53.626;9.906;2023-03-19T03:33:48;12.27;;;10.97;;
14892;SDS011;7538;53.626;9.906;2023-03-19T03:36:15;14.27;;;10.77;;
14892;SDS011;7538;53.626;9.906;2023-03-19T03:38:43;12.57;;;10.60;;
14892;SDS011;7538;53.626;9.906;2023-03-19T03:41:10;11.90;;;10.63;;
14892;SDS011;7538;53.626;9.906;2023-03-19T03:43:37;14.87;;;12.50;;
14892;SDS011;7538;53.626;9.906;2023-03-19T03:46:05;11.57;;;10.27;;
14892;SDS011;7538;53.626;9.906;2023-03-19T03:49:11;13.95;;;10.88;;
14892;SDS011;7538;53.626;9.906;2023-03-19T03:51:38;11.80;;;9.90;;
14892;SDS011;7538;53.626;9.906;2023-03-19T03:54:05;10.57;;;9.40;;
14892;SDS011;7538;53.626;9.906;2023-03-19T03:56:32;13.27;;;10.77;;
14892;SDS011;7538;53.626;9.906;2023-03-19T03:58:58;13.83;;;11.30;;
14892;SDS011;7538;53.626;9.906;2023-03-19T04:01:26;12.20;;;10.30;;
14892;SDS011;7538;53.626;9.906;2023-03-19T04:03:53;11.63;;;9.40;;
14892;SDS011;7538;53.626;9.906;2023-03-19T04:06:22;13.40;;;10.07;;
14892;SDS011;7538;53.626;9.906;2023-03-19T04:08:50;12.37;;;10.00;;
14892;SDS011;7538;53.626;9.906;2023-03-19T04:11:16;9.90;;;8.73;;
14892;SDS011;7538;53.626;9.906;2023-03-19T04:13:43;10.60;;;8.47;;
14892;SDS011;7538;53.626;9.906;2023-03-19T04:16:10;10.87;;;8.50;;
14892;SDS011;7538;53.626;9.906;2023-03-19T04:18:38;13.07;;;10.50;;
14892;SDS011;7538;53.626;9.906;2023-03-19T04:21:05;11.37;;;8.00;;
14892;SDS011;7538;53.626;9.906;2023-03-19T04:23:34;10.43;;;8.20;;
14892;SDS011;7538;53.626;9.906;2023-03-19T04:26:01;10.83;;;9.67;;
14892;SDS011;7538;53.626;9.906;2023-03-19T04:28:30;9.90;;;8.80;;
14892;SDS011;7538;53.626;9.906;2023-03-19T04:30:58;9.27;;;8.20;;
14892;SDS011;7538;53.626;9.906;2023-03-19T04:33:25;8.40;;;7.50;;
14892;SDS011;7538;53.626;9.906;2023-03-19T04:35:52;11.00;;;8.57;;
14892;SDS011;7538;53.626;9.906;2023-03-19T04:38:20;9.57;;;8.13;;
14892;SDS011;7538;53.626;9.906;2023-03-19T04:40:48;9.33;;;8.30;;
14892;SDS011;7538;53.626;9.906;2023-03-19T04:43:15;9.80;;;8.00;;
14892;SDS011;7538;53.626;9.906;2023-03-19T04:45:42;10.70;;;8.50;;
14892;SDS011;7538;53.626;9.906;2023-03-19T04:48:09;8.75;;;7.85;;
14892;SDS011;7538;53.626;9.906;2023-03-19T04:50:36;8.98;;;7.93;;
14892;SDS011;7538;53.626;9.906;2023-03-19T04:53:04;8.87;;;7.97;;
14892;SDS011;7538;53.626;9.906;2023-03-19T04:55:32;9.00;;;8.02;;
14892;SDS011;7538;53.626;9.906;2023-03-19T04:58:00;9.13;;;7.93;;
14892;SDS011;7538;53.626;9.906;2023-03-19T05:00:27;8.40;;;7.60;;
14892;SDS011;7538;53.626;9.906;2023-03-19T05:02:54;9.53;;;7.80;;
14892;SDS011;7538;53.626;9.906;2023-03-19T05:05:21;8.97;;;7.33;;
14892;SDS011;7538;53.626;9.906;2023-03-19T05:07:48;9.93;;;8.10;;
14892;SDS011;7538;53.626;9.906;2023-03-19T05:10:15;8.70;;;7.80;;
14892;SDS011;7538;53.626;9.906;2023-03-19T05:12:41;8.20;;;7.30;;
14892;SDS011;7538;53.626;9.906;2023-03-19T05:15:10;8.50;;;7.30;;
14892;SDS011;7538;53.626;9.906;2023-03-19T05:17:37;9.07;;;7.83;;
14892;SDS011;7538;53.626;9.906;2023-03-19T05:20:05;9.45;;;7.72;;
14892;SDS011;7538;53.626;9.906;2023-03-19T05:22:33;9.10;;;8.10;;
14892;SDS011;7538;53.626;9.906;2023-03-19T05:25:00;9.57;;;7.33;;
14892;SDS011;7538;53.626;9.906;2023-03-19T05:27:27;10.52;;;7.82;;
14892;SDS011;7538;53.626;9.906;2023-03-19T05:29:53;10.07;;;7.73;;
14892;SDS011;7538;53.626;9.906;2023-03-19T05:32:21;8.77;;;7.77;;
14892;SDS011;7538;53.626;9.906;2023-03-19T05:34:49;8.63;;;7.30;;
14892;SDS011;7538;53.626;9.906;2023-03-19T05:37:16;8.93;;;7.27;;
14892;SDS011;7538;53.626;9.906;2023-03-19T05:39:42;8.50;;;7.60;;
14892;SDS011;7538;53.626;9.906;2023-03-19T05:42:09;10.23;;;7.70;;
14892;SDS011;7538;53.626;9.906;2023-03-19T05:44:36;9.10;;;8.13;;
14892;SDS011;7538;53.626;9.906;2023-03-19T05:47:03;9.37;;;7.53;;
14892;SDS011;7538;53.626;9.906;2023-03-19T05:49:32;8.70;;;7.40;;
14892;SDS011;7538;53.626;9.906;2023-03-19T05:51:59;10.00;;;8.73;;
14892;SDS011;7538;53.626;9.906;2023-03-19T05:54:26;9.87;;;6.83;;
14892;SDS011;7538;53.626;9.906;2023-03-19T05:56:52;8.13;;;7.23;;
14892;SDS011;7538;53.626;9.906;2023-03-19T05:59:20;8.40;;;7.30;;
14892;SDS011;7538;53.626;9.906;2023-03-19T06:01:47;7.77;;;7.00;;
14892;SDS011;7538;53.626;9.906;2023-03-19T06:04:14;8.73;;;7.30;;
14892;SDS011;7538;53.626;9.906;2023-03-19T06:06:42;8.53;;;7.37;;
14892;SDS011;7538;53.626;9.906;2023-03-19T06:09:08;8.77;;;7.20;;
14892;SDS011;7538;53.626;9.906;2023-03-19T06:11:36;7.55;;;6.70;;
14892;SDS011;7538;53.626;9.906;2023-03-19T06:14:04;7.47;;;6.73;;
14892;SDS011;7538;53.626;9.906;2023-03-19T06:16:31;8.20;;;7.10;;
14892;SDS011;7538;53.626;9.906;2023-03-19T06:18:58;7.70;;;6.90;;
14892;SDS011;7538;53.626;9.906;2023-03-19T06:21:25;8.23;;;7.43;;
14892;SDS011;7538;53.626;9.906;2023-03-19T06:23:55;9.30;;;8.50;;
14892;SDS011;7538;53.626;9.906;2023-03-19T06:26:22;8.05;;;6.90;;
14892;SDS011;7538;53.626;9.906;2023-03-19T06:28:49;6.93;;;6.27;;
14892;SDS011;7538;53.626;9.906;2023-03-19T06:31:16;7.00;;;6.40;;
14892;SDS011;7538;53.626;9.906;2023-03-19T06:33:43;7.47;;;6.25;;
14892;SDS011;7538;53.626;9.906;2023-03-19T06:36:10;8.10;;;7.30;;
14892;SDS011;7538;53.626;9.906;2023-03-19T06:38:37;8.87;;;7.97;;
14892;SDS011;7538;53.626;9.906;2023-03-19T06:41:05;8.20;;;7.40;;
14892;SDS011;7538;53.626;9.906;2023-03-19T06:43:32;7.57;;;6.78;;
14892;SDS011;7538;53.626;9.906;2023-03-19T06:46:01;6.60;;;6.00;;
14892;SDS011;7538;53.626;9.906;2023-03-19T06:48:27;8.38;;;7.57;;
14892;SDS011;7538;53.626;9.906;2023-03-19T06:50:55;7.95;;;7.15;;
14892;SDS011;7538;53.626;9.906;2023-03-19T06:53:21;9.00;;;7.78;;
14892;SDS011;7538;53.626;9.906;2023-03-19T06:55:48;13.38;;;10.20;;
14892;SDS011;7538;53.626;9.906;2023-03-19T06:58:16;11.32;;;10.23;;
14892;SDS011;7538;53.626;9.906;2023-03-19T07:00:43;10.15;;;9.25;;
14892;SDS011;7538;53.626;9.906;2023-03-19T07:03:10;9.82;;;8.93;;
14892;SDS011;7538;53.626;9.906;2023-03-19T07:05:37;10.20;;;9.23;;
14892;SDS011;7538;53.626;9.906;2023-03-19T07:08:04;8.63;;;7.72;;
14892;SDS011;7538;53.626;9.906;2023-03-19T07:10:35;9.25;;;7.95;;
14892;SDS011;7538;53.626;9.906;2023-03-19T07:13:03;8.43;;;7.72;;
14892;SDS011;7538;53.626;9.906;2023-03-19T07:15:31;8.15;;;7.38;;
14892;SDS011;7538;53.626;9.906;2023-03-19T07:17:58;9.18;;;8.27;;
14892;SDS011;7538;53.626;9.906;2023-03-19T07:20:26;8.13;;;7.43;;
14892;SDS011;7538;53.626;9.906;2023-03-19T07:22:53;7.70;;;7.00;;
14892;SDS011;7538;53.626;9.906;2023-03-19T07:25:20;8.25;;;7.40;;
14892;SDS011;7538;53.626;9.906;2023-03-19T07:27:47;8.43;;;7.63;;
14892;SDS011;7538;53.626;9.906;2023-03-19T07:30:14;7.85;;;7.05;;
14892;SDS011;7538;53.626;9.906;2023-03-19T07:32:42;7.93;;;7.18;;
14892;SDS011;7538;53.626;9.906;2023-03-19T07:35:09;8.15;;;7.45;;
14892;SDS011;7538;53.626;9.906;2023-03-19T07:37:38;8.43;;;7.63;;
14892;SDS011;7538;53.626;9.906;2023-03-19T07:40:05;7.65;;;7.00;;
14892;SDS011;7538;53.626;9.906;2023-03-19T07:42:33;10.27;;;6.57;;
14892;SDS011;7538;53.626;9.906;2023-03-19T07:45:01;6.20;;;5.35;;
14892;SDS011;7538;53.626;9.906;2023-03-19T07:47:28;6.10;;;5.50;;
14892;SDS011;7538;53.626;9.906;2023-03-19T07:49:56;5.82;;;4.72;;
14892;SDS011;7538;53.626;9.906;2023-03-19T07:52:23;6.43;;;5.82;;
14892;SDS011;7538;53.626;9.906;2023-03-19T07:54:51;6.97;;;5.70;;
14892;SDS011;7538;53.626;9.906;2023-03-19T07:57:18;6.13;;;5.47;;
14892;SDS011;7538;53.626;9.906;2023-03-19T07:59:45;5.90;;;5.30;;
14892;SDS011;7538;53.626;9.906;2023-03-19T08:02:11;7.75;;;6.30;;
14892;SDS011;7538;53.626;9.906;2023-03-19T08:04:38;7.10;;;5.85;;
14892;SDS011;7538;53.626;9.906;2023-03-19T08:07:07;5.97;;;5.28;;
14892;SDS011;7538;53.626;9.906;2023-03-19T08:09:36;6.80;;;6.10;;
14892;SDS011;7538;53.626;9.906;2023-03-19T08:12:04;7.68;;;6.25;;
14892;SDS011;7538;53.626;9.906;2023-03-19T08:14:32;6.78;;;5.90;;
14892;SDS011;7538;53.626;9.906;2023-03-19T08:16:59;7.07;;;6.38;;
14892;SDS011;7538;53.626;9.906;2023-03-19T08:19:26;7.53;;;6.10;;
14892;SDS011;7538;53.626;9.906;2023-03-19T08:21:53;5.90;;;5.30;;
14892;SDS011;7538;53.626;9.906;2023-03-19T08:24:21;6.18;;;5.50;;
14892;SDS011;7538;53.626;9.906;2023-03-19T08:26:48;6.13;;;5.53;;
14892;SDS011;7538;53.626;9.906;2023-03-19T08:29:15;6.35;;;5.47;;
14892;SDS011;7538;53.626;9.906;2023-03-19T08:31:42;7.40;;;5.63;;
14892;SDS011;7538;53.626;9.906;2023-03-19T08:34:09;7.18;;;5.68;;
14892;SDS011;7538;53.626;9.906;2023-03-19T08:36:36;6.35;;;5.75;;
14892;SDS011;7538;53.626;9.906;2023-03-19T08:39:02;8.18;;;5.80;;
14892;SDS011;7538;53.626;9.906;2023-03-19T08:41:31;5.95;;;5.35;;
14892;SDS011;7538;53.626;9.906;2023-03-19T08:43:57;7.65;;;5.40;;
14892;SDS011;7538;53.626;9.906;2023-03-19T08:46:25;6.20;;;4.90;;
14892;SDS011;7538;53.626;9.906;2023-03-19T08:48:53;6.13;;;4.68;;
14892;SDS011;7538;53.626;9.906;2023-03-19T08:51:20;4.88;;;4.05;;
14892;SDS011;7538;53.626;9.906;2023-03-19T08:53:48;6.32;;;4.75;;
14892;SDS011;7538;53.626;9.906;2023-03-19T08:56:15;4.97;;;4.18;;
14892;SDS011;7538;53.626;9.906;2023-03-19T08:58:43;4.75;;;4.32;;
14892;SDS011;7538;53.626;9.906;2023-03-19T09:01:11;4.20;;;3.80;;
14892;SDS011;7538;53.626;9.906;2023-03-19T09:03:39;3.75;;;3.45;;
14892;SDS011;7538;53.626;9.906;2023-03-19T09:06:08;4.32;;;3.67;;
14892;SDS011;7538;53.626;9.906;2023-03-19T09:08:36;3.80;;;3.47;;
14892;SDS011;7538;53.626;9.906;2023-03-19T09:11:03;4.65;;;4.25;;
14892;SDS011;7538;53.626;9.906;2023-03-19T09:13:31;3.92;;;3.55;;
14892;SDS011;7538;53.626;9.906;2023-03-19T09:16:00;3.85;;;3.45;;
14892;SDS011;7538;53.626;9.906;2023-03-19T09:18:26;3.50;;;3.20;;
14892;SDS011;7538;53.626;9.906;2023-03-19T09:20:53;3.60;;;3.30;;
14892;SDS011;7538;53.626;9.906;2023-03-19T09:23:20;4.05;;;3.60;;
14892;SDS011;7538;53.626;9.906;2023-03-19T09:25:48;4.75;;;3.55;;
14892;SDS011;7538;53.626;9.906;2023-03-19T09:28:15;3.75;;;3.30;;
14892;SDS011;7538;53.626;9.906;2023-03-19T09:30:44;4.25;;;3.85;;
14892;SDS011;7538;53.626;9.906;2023-03-19T09:33:12;4.50;;;3.70;;
14892;SDS011;7538;53.626;9.906;2023-03-19T09:35:40;3.05;;;2.60;;
14892;SDS011;7538;53.626;9.906;2023-03-19T09:38:07;5.13;;;3.22;;
14892;SDS011;7538;53.626;9.906;2023-03-19T09:40:34;4.32;;;3.33;;
14892;SDS011;7538;53.626;9.906;2023-03-19T09:43:12;4.38;;;2.85;;
14892;SDS011;7538;53.626;9.906;2023-03-19T09:46:01;2.78;;;2.53;;
14892;SDS011;7538;53.626;9.906;2023-03-19T09:48:34;3.55;;;3.00;;
14892;SDS011;7538;53.626;9.906;2023-03-19T09:51:11;3.58;;;3.25;;
14892;SDS011;7538;53.626;9.906;2023-03-19T09:53:44;4.20;;;3.80;;
14892;SDS011;7538;53.626;9.906;2023-03-19T09:56:15;4.45;;;4.05;;
14892;SDS011;7538;53.626;9.906;2023-03-19T09:58:43;6.35;;;4.38;;
14892;SDS011;7538;53.626;9.906;2023-03-19T10:01:15;4.68;;;3.65;;
14892;SDS011;7538;53.626;9.906;2023-03-19T10:03:55;4.57;;;3.67;;
14892;SDS011;7538;53.626;9.906;2023-03-19T10:06:32;4.22;;;3.80;;
14892;SDS011;7538;53.626;9.906;2023-03-19T10:09:11;4.53;;;3.58;;
14892;SDS011;7538;53.626;9.906;2023-03-19T10:11:48;4.07;;;3.65;;
14892;SDS011;7538;53.626;9.906;2023-03-19T10:14:34;4.32;;;3.92;;
14892;SDS011;7538;53.626;9.906;2023-03-19T10:17:11;6.72;;;4.63;;
14892;SDS011;7538;53.626;9.906;2023-03-19T10:19:44;4.47;;;3.47;;
14892;SDS011;7538;53.626;9.906;2023-03-19T10:22:17;5.00;;;3.75;;
14892;SDS011;7538;53.626;9.906;2023-03-19T10:24:46;4.43;;;3.65;;
14892;SDS011;7538;53.626;9.906;2023-03-19T10:27:16;4.43;;;4.03;;
14892;SDS011;7538;53.626;9.906;2023-03-19T10:29:44;4.72;;;4.25;;
14892;SDS011;7538;53.626;9.906;2023-03-19T10:32:13;4.70;;;3.95;;
14892;SDS011;7538;53.626;9.906;2023-03-19T10:34:45;3.58;;;3.28;;
14892;SDS011;7538;53.626;9.906;2023-03-19T10:37:14;4.50;;;3.72;;
14892;SDS011;7538;53.626;9.906;2023-03-19T10:39:44;4.13;;;3.72;;
14892;SDS011;7538;53.626;9.906;2023-03-19T10:42:17;8.07;;;3.65;;
14892;SDS011;7538;53.626;9.906;2023-03-19T10:44:52;4.10;;;3.70;;
14892;SDS011;7538;53.626;9.906;2023-03-19T10:47:25;4.35;;;3.80;;
14892;SDS011;7538;53.626;9.906;2023-03-19T10:49:53;4.22;;;3.40;;
14892;SDS011;7538;53.626;9.906;2023-03-19T10:52:22;3.97;;;3.22;;
14892;SDS011;7538;53.626;9.906;2023-03-19T10:54:54;3.50;;;3.20;;
14892;SDS011;7538;53.626;9.906;2023-03-19T10:57:24;4.00;;;3.70;;
14892;SDS011;7538;53.626;9.906;2023-03-19T10:59:52;3.92;;;3.60;;
14892;SDS011;7538;53.626;9.906;2023-03-19T11:02:20;5.05;;;3.53;;
14892;SDS011;7538;53.626;9.906;2023-03-19T11:04:48;4.32;;;3.83;;
14892;SDS011;7538;53.626;9.906;2023-03-19T11:07:18;4.53;;;3.75;;
14892;SDS011;7538;53.626;9.906;2023-03-19T11:09:47;5.05;;;4.53;;
14892;SDS011;7538;53.626;9.906;2023-03-19T11:12:16;5.38;;;4.20;;
14892;SDS011;7538;53.626;9.906;2023-03-19T11:14:46;5.28;;;4.50;;
14892;SDS011;7538;53.626;9.906;2023-03-19T11:17:19;5.03;;;4.55;;
14892;SDS011;7538;53.626;9.906;2023-03-19T11:19:49;5.20;;;4.72;;
14892;SDS011;7538;53.626;9.906;2023-03-19T11:22:21;4.45;;;4.05;;
14892;SDS011;7538;53.626;9.906;2023-03-19T11:24:50;5.57;;;4.22;;
14892;SDS011;7538;53.626;9.906;2023-03-19T11:27:25;5.90;;;4.53;;
14892;SDS011;7538;53.626;9.906;2023-03-19T11:29:53;5.70;;;4.68;;
14892;SDS011;7538;53.626;9.906;2023-03-19T11:35:26;7.93;;;4.82;;
14892;SDS011;7538;53.626;9.906;2023-03-19T11:37:58;4.95;;;4.47;;
14892;SDS011;7538;53.626;9.906;2023-03-19T11:40:29;6.65;;;4.60;;
14892;SDS011;7538;53.626;9.906;2023-03-19T11:43:06;5.75;;;4.70;;
14892;SDS011;7538;53.626;9.906;2023-03-19T11:45:52;8.80;;;5.13;;
14892;SDS011;7538;53.626;9.906;2023-03-19T11:48:29;4.85;;;4.45;;
14892;SDS011;7538;53.626;9.906;2023-03-19T11:51:06;5.57;;;4.35;;
14892;SDS011;7538;53.626;9.906;2023-03-19T11:53:45;6.93;;;4.50;;
14892;SDS011;7538;53.626;9.906;2023-03-19T11:56:22;5.43;;;4.43;;
14892;SDS011;7538;53.626;9.906;2023-03-19T12:07:46;5.65;;;3.97;;
14892;SDS011;7538;53.626;9.906;2023-03-19T12:13:19;5.18;;;3.60;;
14892;SDS011;7538;53.626;9.906;2023-03-19T12:15:59;5.13;;;4.15;;
14892;SDS011;7538;53.626;9.906;2023-03-19T12:18:44;4.15;;;3.40;;
14892;SDS011;7538;53.626;9.906;2023-03-19T12:21:26;4.78;;;3.50;;
14892;SDS011;7538;53.626;9.906;2023-03-19T12:24:01;4.53;;;3.30;;
14892;SDS011;7538;53.626;9.906;2023-03-19T12:26:34;3.95;;;3.45;;
14892;SDS011;7538;53.626;9.906;2023-03-19T12:29:17;5.82;;;2.90;;
14892;SDS011;7538;53.626;9.906;2023-03-19T12:31:52;2.55;;;2.25;;
14892;SDS011;7538;53.626;9.906;2023-03-19T12:34:29;2.40;;;2.10;;
14892;SDS011;7538;53.626;9.906;2023-03-19T12:37:04;3.67;;;2.40;;
14892;SDS011;7538;53.626;9.906;2023-03-19T12:39:39;3.10;;;2.80;;
14892;SDS011;7538;53.626;9.906;2023-03-19T12:42:13;4.13;;;3.08;;
14892;SDS011;7538;53.626;9.906;2023-03-19T12:44:43;3.53;;;2.65;;
14892;SDS011;7538;53.626;9.906;2023-03-19T12:47:13;2.53;;;2.25;;
14892;SDS011;7538;53.626;9.906;2023-03-19T12:49:45;11.43;;;7.18;;
14892;SDS011;7538;53.626;9.906;2023-03-19T12:52:17;4.75;;;4.00;;
14892;SDS011;7538;53.626;9.906;2023-03-19T12:54:49;3.75;;;3.30;;
14892;SDS011;7538;53.626;9.906;2023-03-19T12:57:29;5.20;;;3.53;;
14892;SDS011;7538;53.626;9.906;2023-03-19T13:00:02;11.68;;;8.73;;
14892;SDS011;7538;53.626;9.906;2023-03-19T13:02:37;9.95;;;6.75;;
14892;SDS011;7538;53.626;9.906;2023-03-19T13:05:08;8.40;;;4.60;;
14892;SDS011;7538;53.626;9.906;2023-03-19T13:07:49;7.70;;;3.60;;
14892;SDS011;7538;53.626;9.906;2023-03-19T13:10:21;4.38;;;3.33;;
14892;SDS011;7538;53.626;9.906;2023-03-19T13:12:50;5.45;;;2.85;;
14892;SDS011;7538;53.626;9.906;2023-03-19T13:15:19;4.22;;;3.28;;
14892;SDS011;7538;53.626;9.906;2023-03-19T13:17:53;4.32;;;2.92;;
14892;SDS011;7538;53.626;9.906;2023-03-19T13:20:30;3.78;;;3.22;;
14892;SDS011;7538;53.626;9.906;2023-03-19T13:23:14;5.95;;;3.58;;
14892;SDS011;7538;53.626;9.906;2023-03-19T13:25:45;4.97;;;3.10;;
14892;SDS011;7538;53.626;9.906;2023-03-19T13:28:19;6.40;;;3.70;;
14892;SDS011;7538;53.626;9.906;2023-03-19T13:30:58;3.85;;;3.53;;
14892;SDS011;7538;53.626;9.906;2023-03-19T13:33:26;5.90;;;3.20;;
14892;SDS011;7538;53.626;9.906;2023-03-19T13:35:55;4.35;;;3.38;;
14892;SDS011;7538;53.626;9.906;2023-03-19T13:38:26;4.45;;;3.78;;
14892;SDS011;7538;53.626;9.906;2023-03-19T13:40:58;5.40;;;3.60;;
14892;SDS011;7538;53.626;9.906;2023-03-19T13:46:27;5.28;;;3.53;;
14892;SDS011;7538;53.626;9.906;2023-03-19T13:51:54;6.13;;;4.00;;
14892;SDS011;7538;53.626;9.906;2023-03-19T13:54:34;3.47;;;3.17;;
14892;SDS011;7538;53.626;9.906;2023-03-19T13:57:05;3.88;;;3.47;;
14892;SDS011;7538;53.626;9.906;2023-03-19T13:59:47;4.97;;;3.38;;
14892;SDS011;7538;53.626;9.906;2023-03-19T14:05:15;3.75;;;3.40;;
14892;SDS011;7538;53.626;9.906;2023-03-19T14:07:45;4.65;;;3.75;;
14892;SDS011;7538;53.626;9.906;2023-03-19T14:10:18;5.32;;;3.88;;
14892;SDS011;7538;53.626;9.906;2023-03-19T14:12:51;5.47;;;3.90;;
14892;SDS011;7538;53.626;9.906;2023-03-19T14:15:29;5.93;;;4.28;;
14892;SDS011;7538;53.626;9.906;2023-03-19T14:17:58;4.78;;;4.32;;
14892;SDS011;7538;53.626;9.906;2023-03-19T14:20:27;5.03;;;4.13;;
14892;SDS011;7538;53.626;9.906;2023-03-19T14:23:02;6.47;;;3.95;;
14892;SDS011;7538;53.626;9.906;2023-03-19T14:25:53;5.43;;;3.95;;
14892;SDS011;7538;53.626;9.906;2023-03-19T14:28:26;7.00;;;4.53;;
14892;SDS011;7538;53.626;9.906;2023-03-19T14:31:01;5.88;;;4.95;;
14892;SDS011;7538;53.626;9.906;2023-03-19T14:33:31;6.35;;;4.78;;
14892;SDS011;7538;53.626;9.906;2023-03-19T14:36:07;7.45;;;4.93;;
14892;SDS011;7538;53.626;9.906;2023-03-19T14:38:39;6.15;;;4.88;;
14892;SDS011;7538;53.626;9.906;2023-03-19T14:41:14;5.70;;;4.32;;
14892;SDS011;7538;53.626;9.906;2023-03-19T14:43:52;8.35;;;5.93;;
14892;SDS011;7538;53.626;9.906;2023-03-19T14:46:45;8.60;;;6.22;;
14892;SDS011;7538;53.626;9.906;2023-03-19T14:49:32;36.25;;;19.70;;
14892;SDS011;7538;53.626;9.906;2023-03-19T14:52:27;6.38;;;5.40;;
14892;SDS011;7538;53.626;9.906;2023-03-19T14:54:57;15.57;;;8.85;;
14892;SDS011;7538;53.626;9.906;2023-03-19T14:57:25;10.60;;;6.72;;
14892;SDS011;7538;53.626;9.906;2023-03-19T14:59:54;8.80;;;6.82;;
14892;SDS011;7538;53.626;9.906;2023-03-19T15:02:32;13.25;;;8.32;;
14892;SDS011;7538;53.626;9.906;2023-03-19T15:05:01;19.33;;;10.45;;
14892;SDS011;7538;53.626;9.906;2023-03-19T15:07:31;14.60;;;10.15;;
14892;SDS011;7538;53.626;9.906;2023-03-19T15:10:02;10.98;;;6.82;;
14892;SDS011;7538;53.626;9.906;2023-03-19T15:12:46;9.35;;;7.03;;
14892;SDS011;7538;53.626;9.906;2023-03-19T15:15:29;10.90;;;8.02;;
14892;SDS011;7538;53.626;9.906;2023-03-19T15:18:06;10.18;;;8.07;;
14892;SDS011;7538;53.626;9.906;2023-03-19T15:20:36;9.25;;;7.88;;
14892;SDS011;7538;53.626;9.906;2023-03-19T15:23:07;10.82;;;9.52;;
14892;SDS011;7538;53.626;9.906;2023-03-19T15:25:42;11.15;;;10.05;;
14892;SDS011;7538;53.626;9.906;2023-03-19T15:28:11;10.63;;;9.55;;
14892;SDS011;7538;53.626;9.906;2023-03-19T15:30:40;13.90;;;11.45;;
14892;SDS011;7538;53.626;9.906;2023-03-19T15:33:17;11.27;;;10.27;;